<?xml version="1.0" encoding="UTF-8" standalone="no" ?>
<gpx xmlns="http://www.topografix.com/GPX/1/1" xmlns:xsi="http://www.w3.org/2001/XMLSchema-instance" xsi:schemaLocation="http://www.topografix.com/GPX/1/1 http://www.topografix.com/GPX/1/1/gpx.xsd" version="1.1" creator="VisuGPX - https://www.visugpx.com">
  <metadata>
    <name>Refuge Bertone - Refuge Elena</name>
    <desc><![CDATA[Etape5 courmayeur refuge bonatti ]]></desc>
  </metadata>
  <wpt lat="45.81216" lon="6.98122">
    <ele>2137</ele>
    <name><![CDATA[Table d’orientation]]></name>
  </wpt>
  <wpt lat="45.81956" lon="7.03024">
    <ele>2287</ele>
    <name><![CDATA[Franchir le torrent]]></name>
  </wpt>
  <wpt lat="45.83354" lon="7.04928">
    <ele>2338</ele>
    <name><![CDATA[Vers le Nord]]></name>
  </wpt>
  <wpt lat="45.85328" lon="7.02733">
    <ele>1689</ele>
    <name><![CDATA[Traverser le torrent]]></name>
  </wpt>
  <wpt lat="45.87071" lon="7.05046">
    <ele>1770</ele>
    <name><![CDATA[Franchir la Doire]]></name>
  </wpt>
  <trk>
    <name><![CDATA[Refuge Bertone - Refuge Elena]]></name>
    <trkseg>
      <trkpt lat="45.80864" lon="6.97754">
        <ele>1967</ele>
        <time>2021-05-11T14:31:05+02:00</time>
      </trkpt>
      <trkpt lat="45.80886" lon="6.97849">
        <ele>1978</ele>
        <time>2021-05-11T14:31:10+02:00</time>
      </trkpt>
      <trkpt lat="45.80963" lon="6.97844">
        <ele>1998</ele>
        <time>2021-05-11T14:31:15+02:00</time>
      </trkpt>
      <trkpt lat="45.80972" lon="6.97932">
        <ele>2009</ele>
        <time>2021-05-11T14:31:20+02:00</time>
      </trkpt>
      <trkpt lat="45.81094" lon="6.9801">
        <ele>2062</ele>
        <time>2021-05-11T14:31:25+02:00</time>
      </trkpt>
      <trkpt lat="45.81216" lon="6.98122">
        <ele>2137</ele>
        <time>2021-05-11T14:31:30+02:00</time>
      </trkpt>
      <trkpt lat="45.81378" lon="6.9832">
        <ele>2216</ele>
        <time>2021-05-11T14:31:35+02:00</time>
      </trkpt>
      <trkpt lat="45.81546" lon="6.9857">
        <ele>2227</ele>
        <time>2021-05-11T14:31:40+02:00</time>
      </trkpt>
      <trkpt lat="45.82291" lon="7.00467">
        <ele>2320</ele>
        <time>2021-05-11T14:31:45+02:00</time>
      </trkpt>
      <trkpt lat="45.82494" lon="7.01411">
        <ele>2494</ele>
        <time>2021-05-11T14:31:50+02:00</time>
      </trkpt>
      <trkpt lat="45.82338" lon="7.02029">
        <ele>2527</ele>
        <time>2021-05-11T14:31:55+02:00</time>
      </trkpt>
      <trkpt lat="45.82159" lon="7.01909">
        <ele>2550</ele>
        <time>2021-05-11T14:32:00+02:00</time>
      </trkpt>
      <trkpt lat="45.82015" lon="7.02046">
        <ele>2459</ele>
        <time>2021-05-11T14:32:05+02:00</time>
      </trkpt>
      <trkpt lat="45.82087" lon="7.02595">
        <ele>2391</ele>
        <time>2021-05-11T14:32:10+02:00</time>
      </trkpt>
      <trkpt lat="45.81956" lon="7.03024">
        <ele>2287</ele>
        <time>2021-05-11T14:32:15+02:00</time>
      </trkpt>
      <trkpt lat="45.82171" lon="7.03333">
        <ele>2260</ele>
        <time>2021-05-11T14:32:20+02:00</time>
      </trkpt>
      <trkpt lat="45.82135" lon="7.03505">
        <ele>2314</ele>
        <time>2021-05-11T14:32:25+02:00</time>
      </trkpt>
      <trkpt lat="45.82542" lon="7.03728">
        <ele>2438</ele>
        <time>2021-05-11T14:32:30+02:00</time>
      </trkpt>
      <trkpt lat="45.82736" lon="7.04732">
        <ele>2487</ele>
        <time>2021-05-11T14:32:35+02:00</time>
      </trkpt>
      <trkpt lat="45.82781" lon="7.04986">
        <ele>2433</ele>
        <time>2021-05-11T14:32:40+02:00</time>
      </trkpt>
      <trkpt lat="45.82907" lon="7.05028">
        <ele>2405</ele>
        <time>2021-05-11T14:32:45+02:00</time>
      </trkpt>
      <trkpt lat="45.83089" lon="7.04986">
        <ele>2375</ele>
        <time>2021-05-11T14:32:50+02:00</time>
      </trkpt>
      <trkpt lat="45.83354" lon="7.04928">
        <ele>2338</ele>
        <time>2021-05-11T14:32:55+02:00</time>
      </trkpt>
      <trkpt lat="45.8363" lon="7.04848">
        <ele>2278</ele>
        <time>2021-05-11T14:33:00+02:00</time>
      </trkpt>
      <trkpt lat="45.83968" lon="7.0458">
        <ele>2253</ele>
        <time>2021-05-11T14:33:05+02:00</time>
      </trkpt>
      <trkpt lat="45.8424" lon="7.0423">
        <ele>2206</ele>
        <time>2021-05-11T14:33:10+02:00</time>
      </trkpt>
      <trkpt lat="45.84228" lon="7.04069">
        <ele>2197</ele>
        <time>2021-05-11T14:33:15+02:00</time>
      </trkpt>
      <trkpt lat="45.8433" lon="7.03757">
        <ele>2154</ele>
        <time>2021-05-11T14:33:20+02:00</time>
      </trkpt>
      <trkpt lat="45.8456" lon="7.03528">
        <ele>2072</ele>
        <time>2021-05-11T14:33:25+02:00</time>
      </trkpt>
      <trkpt lat="45.84653" lon="7.03356">
        <ele>2037</ele>
        <time>2021-05-11T14:33:30+02:00</time>
      </trkpt>
      <trkpt lat="45.84716" lon="7.03183">
        <ele>1991</ele>
        <time>2021-05-11T14:33:35+02:00</time>
      </trkpt>
      <trkpt lat="45.84819" lon="7.03165">
        <ele>1958</ele>
        <time>2021-05-11T14:33:40+02:00</time>
      </trkpt>
      <trkpt lat="45.84911" lon="7.03267">
        <ele>1932</ele>
        <time>2021-05-11T14:33:45+02:00</time>
      </trkpt>
      <trkpt lat="45.84905" lon="7.0315">
        <ele>1919</ele>
        <time>2021-05-11T14:33:50+02:00</time>
      </trkpt>
      <trkpt lat="45.8497" lon="7.03123">
        <ele>1873</ele>
        <time>2021-05-11T14:33:55+02:00</time>
      </trkpt>
      <trkpt lat="45.84937" lon="7.03026">
        <ele>1867</ele>
        <time>2021-05-11T14:34:00+02:00</time>
      </trkpt>
      <trkpt lat="45.85055" lon="7.03025">
        <ele>1808</ele>
        <time>2021-05-11T14:34:05+02:00</time>
      </trkpt>
      <trkpt lat="45.85024" lon="7.02939">
        <ele>1797</ele>
        <time>2021-05-11T14:34:10+02:00</time>
      </trkpt>
      <trkpt lat="45.85078" lon="7.02939">
        <ele>1776</ele>
        <time>2021-05-11T14:34:15+02:00</time>
      </trkpt>
      <trkpt lat="45.85104" lon="7.02986">
        <ele>1777</ele>
        <time>2021-05-11T14:34:20+02:00</time>
      </trkpt>
      <trkpt lat="45.85154" lon="7.02966">
        <ele>1753</ele>
        <time>2021-05-11T14:34:25+02:00</time>
      </trkpt>
      <trkpt lat="45.85158" lon="7.02908">
        <ele>1738</ele>
        <time>2021-05-11T14:34:30+02:00</time>
      </trkpt>
      <trkpt lat="45.85192" lon="7.02868">
        <ele>1720</ele>
        <time>2021-05-11T14:34:35+02:00</time>
      </trkpt>
      <trkpt lat="45.85177" lon="7.02714">
        <ele>1688</ele>
        <time>2021-05-11T14:34:40+02:00</time>
      </trkpt>
      <trkpt lat="45.85202" lon="7.02625">
        <ele>1675</ele>
        <time>2021-05-11T14:34:45+02:00</time>
      </trkpt>
      <trkpt lat="45.85286" lon="7.02604">
        <ele>1679</ele>
        <time>2021-05-11T14:34:50+02:00</time>
      </trkpt>
      <trkpt lat="45.85328" lon="7.02733">
        <ele>1689</ele>
        <time>2021-05-11T14:34:55+02:00</time>
      </trkpt>
      <trkpt lat="45.85316" lon="7.02904">
        <ele>1698</ele>
        <time>2021-05-11T14:35:00+02:00</time>
      </trkpt>
      <trkpt lat="45.85526" lon="7.03157">
        <ele>1741</ele>
        <time>2021-05-11T14:35:05+02:00</time>
      </trkpt>
      <trkpt lat="45.8575" lon="7.03391">
        <ele>1741</ele>
        <time>2021-05-11T14:35:10+02:00</time>
      </trkpt>
      <trkpt lat="45.86261" lon="7.03814">
        <ele>1741</ele>
        <time>2021-05-11T14:35:15+02:00</time>
      </trkpt>
      <trkpt lat="45.86356" lon="7.0393">
        <ele>1746</ele>
        <time>2021-05-11T14:35:20+02:00</time>
      </trkpt>
      <trkpt lat="45.86383" lon="7.04147">
        <ele>1750</ele>
        <time>2021-05-11T14:35:25+02:00</time>
      </trkpt>
      <trkpt lat="45.86512" lon="7.0438">
        <ele>1755</ele>
        <time>2021-05-11T14:35:30+02:00</time>
      </trkpt>
      <trkpt lat="45.86682" lon="7.04544">
        <ele>1755</ele>
        <time>2021-05-11T14:35:35+02:00</time>
      </trkpt>
      <trkpt lat="45.86767" lon="7.04586">
        <ele>1754</ele>
        <time>2021-05-11T14:35:40+02:00</time>
      </trkpt>
      <trkpt lat="45.86888" lon="7.04835">
        <ele>1762</ele>
        <time>2021-05-11T14:35:45+02:00</time>
      </trkpt>
      <trkpt lat="45.87071" lon="7.05046">
        <ele>1770</ele>
        <time>2021-05-11T14:35:50+02:00</time>
      </trkpt>
      <trkpt lat="45.87265" lon="7.05578">
        <ele>1788</ele>
        <time>2021-05-11T14:35:55+02:00</time>
      </trkpt>
      <trkpt lat="45.87405" lon="7.0576">
        <ele>1863</ele>
        <time>2021-05-11T14:36:00+02:00</time>
      </trkpt>
      <trkpt lat="45.87632" lon="7.0599">
        <ele>1938</ele>
        <time>2021-05-11T14:36:05+02:00</time>
      </trkpt>
      <trkpt lat="45.87894" lon="7.06228">
        <ele>1956</ele>
        <time>2021-05-11T14:36:10+02:00</time>
      </trkpt>
      <trkpt lat="45.88042" lon="7.06399">
        <ele>1987</ele>
        <time>2021-05-11T14:36:15+02:00</time>
      </trkpt>
      <trkpt lat="45.88144" lon="7.06432">
        <ele>1995</ele>
        <time>2021-05-11T14:36:20+02:00</time>
      </trkpt>
      <trkpt lat="45.88098" lon="7.06325">
        <ele>1958</ele>
        <time>2021-05-11T14:36:25+02:00</time>
      </trkpt>
      <trkpt lat="45.8819" lon="7.06348">
        <ele>1983</ele>
        <time>2021-05-11T14:36:30+02:00</time>
      </trkpt>
      <trkpt lat="45.88268" lon="7.06493">
        <ele>2021</ele>
        <time>2021-05-11T14:36:35+02:00</time>
      </trkpt>
      <trkpt lat="45.88454" lon="7.06612">
        <ele>2059</ele>
        <time>2021-05-11T14:36:40+02:00</time>
      </trkpt>
    </trkseg>
  </trk>
</gpx>